sensor_id;sensor_type;location;lat;lon;timestamp;temperature;humidity
6666;DHT22;3369;49.906;8.598;2023-05-02T00:00:48;13.70;97.50
6666;DHT22;3369;49.906;8.598;2023-05-02T00:03:14;13.70;97.50
6666;DHT22;3369;49.906;8.598;2023-05-02T00:05:40;13.60;97.50
6666;DHT22;3369;49.906;8.598;2023-05-02T00:08:06;13.60;97.50
6666;DHT22;3369;49.906;8.598;2023-05-02T00:10:32;13.60;97.60
6666;DHT22;3369;49.906;8.598;2023-05-02T00:12:58;13.50;97.60
6666;DHT22;3369;49.906;8.598;2023-05-02T00:15:24;13.50;97.70
6666;DHT22;3369;49.906;8.598;2023-05-02T00:17:51;13.40;97.70
6666;DHT22;3369;49.906;8.598;2023-05-02T00:20:17;13.30;97.70
6666;DHT22;3369;49.906;8.598;2023-05-02T00:22:43;13.20;97.80
6666;DHT22;3369;49.906;8.598;2023-05-02T00:25:08;13.10;97.80
6666;DHT22;3369;49.906;8.598;2023-05-02T00:27:34;13.10;97.90
6666;DHT22;3369;49.906;8.598;2023-05-02T00:30:00;13.00;98.00
6666;DHT22;3369;49.906;8.598;2023-05-02T00:32:26;12.90;98.10
6666;DHT22;3369;49.906;8.598;2023-05-02T00:34:52;12.90;98.20
6666;DHT22;3369;49.906;8.598;2023-05-02T00:37:18;12.90;98.30
6666;DHT22;3369;49.906;8.598;2023-05-02T00:39:44;12.80;98.40
6666;DHT22;3369;49.906;8.598;2023-05-02T00:42:10;12.80;98.50
6666;DHT22;3369;49.906;8.598;2023-05-02T00:44:35;12.80;98.60
6666;DHT22;3369;49.906;8.598;2023-05-02T00:47:01;12.70;98.60
6666;DHT22;3369;49.906;8.598;2023-05-02T00:49:27;12.70;98.70
6666;DHT22;3369;49.906;8.598;2023-05-02T00:51:53;12.60;98.70
6666;DHT22;3369;49.906;8.598;2023-05-02T00:54:19;12.60;98.70
6666;DHT22;3369;49.906;8.598;2023-05-02T00:56:45;12.60;98.80
6666;DHT22;3369;49.906;8.598;2023-05-02T00:59:12;12.50;98.90
6666;DHT22;3369;49.906;8.598;2023-05-02T01:05:04;12.40;99.20
6666;DHT22;3369;49.906;8.598;2023-05-02T01:29:33;12.00;99.90
6666;DHT22;3369;49.906;8.598;2023-05-02T01:32:01;11.90;99.90
6666;DHT22;3369;49.906;8.598;2023-05-02T01:34:28;11.90;99.90
6666;DHT22;3369;49.906;8.598;2023-05-02T01:36:56;11.80;99.90
6666;DHT22;3369;49.906;8.598;2023-05-02T01:39:24;11.80;99.90
6666;DHT22;3369;49.906;8.598;2023-05-02T01:41:53;11.80;99.90
6666;DHT22;3369;49.906;8.598;2023-05-02T01:44:22;11.70;99.90
6666;DHT22;3369;49.906;8.598;2023-05-02T01:46:48;11.70;99.90
6666;DHT22;3369;49.906;8.598;2023-05-02T01:49:15;11.60;99.90
6666;DHT22;3369;49.906;8.598;2023-05-02T01:51:48;11.60;99.90
6666;DHT22;3369;49.906;8.598;2023-05-02T01:54:16;11.60;99.90
6666;DHT22;3369;49.906;8.598;2023-05-02T01:56:42;11.50;99.90
6666;DHT22;3369;49.906;8.598;2023-05-02T01:59:13;11.50;99.90
6666;DHT22;3369;49.906;8.598;2023-05-02T02:01:40;11.50;99.90
6666;DHT22;3369;49.906;8.598;2023-05-02T02:04:09;11.40;99.90
6666;DHT22;3369;49.906;8.598;2023-05-02T02:06:35;11.40;99.90
6666;DHT22;3369;49.906;8.598;2023-05-02T02:09:01;11.30;99.90
6666;DHT22;3369;49.906;8.598;2023-05-02T02:11:43;11.30;99.90
6666;DHT22;3369;49.906;8.598;2023-05-02T02:14:19;11.30;99.90
6666;DHT22;3369;49.906;8.598;2023-05-02T02:16:45;11.30;99.90
6666;DHT22;3369;49.906;8.598;2023-05-02T02:19:13;11.30;99.90
6666;DHT22;3369;49.906;8.598;2023-05-02T02:21:42;11.30;99.90
6666;DHT22;3369;49.906;8.598;2023-05-02T02:24:08;11.30;99.90
6666;DHT22;3369;49.906;8.598;2023-05-02T02:26:35;11.20;99.90
6666;DHT22;3369;49.906;8.598;2023-05-02T02:29:02;11.20;99.90
6666;DHT22;3369;49.906;8.598;2023-05-02T02:31:35;11.10;99.90
6666;DHT22;3369;49.906;8.598;2023-05-02T02:34:04;11.10;99.90
6666;DHT22;3369;49.906;8.598;2023-05-02T02:36:52;11.10;99.90
6666;DHT22;3369;49.906;8.598;2023-05-02T02:45:16;10.90;99.90
6666;DHT22;3369;49.906;8.598;2023-05-02T02:48:06;10.90;99.90
6666;DHT22;3369;49.906;8.598;2023-05-02T02:53:26;10.90;99.90
6666;DHT22;3369;49.906;8.598;2023-05-02T02:55:57;10.80;99.90
6666;DHT22;3369;49.906;8.598;2023-05-02T03:01:23;10.70;99.90
6666;DHT22;3369;49.906;8.598;2023-05-02T03:03:51;10.70;99.90
6666;DHT22;3369;49.906;8.598;2023-05-02T03:06:18;10.70;99.90
6666;DHT22;3369;49.906;8.598;2023-05-02T03:08:44;10.60;99.90
6666;DHT22;3369;49.906;8.598;2023-05-02T03:11:09;10.60;99.90
6666;DHT22;3369;49.906;8.598;2023-05-02T03:13:35;10.60;99.90
6666;DHT22;3369;49.906;8.598;2023-05-02T03:18:36;10.50;99.90
6666;DHT22;3369;49.906;8.598;2023-05-02T03:21:01;10.50;99.90
6666;DHT22;3369;49.906;8.598;2023-05-02T03:23:27;10.50;99.90
6666;DHT22;3369;49.906;8.598;2023-05-02T03:25:52;10.50;99.90
6666;DHT22;3369;49.906;8.598;2023-05-02T03:28:18;10.40;99.90
6666;DHT22;3369;49.906;8.598;2023-05-02T03:30:44;10.40;99.90
6666;DHT22;3369;49.906;8.598;2023-05-02T03:33:09;10.40;99.90
6666;DHT22;3369;49.906;8.598;2023-05-02T03:35:35;10.30;99.90
6666;DHT22;3369;49.906;8.598;2023-05-02T03:38:00;10.30;99.90
6666;DHT22;3369;49.906;8.598;2023-05-02T03:40:26;10.30;99.90
6666;DHT22;3369;49.906;8.598;2023-05-02T03:42:52;10.30;99.90
6666;DHT22;3369;49.906;8.598;2023-05-02T03:45:17;10.20;99.90
6666;DHT22;3369;49.906;8.598;2023-05-02T03:47:43;10.20;99.90
6666;DHT22;3369;49.906;8.598;2023-05-02T03:50:09;10.10;99.90
6666;DHT22;3369;49.906;8.598;2023-05-02T03:52:35;10.10;99.90
6666;DHT22;3369;49.906;8.598;2023-05-02T03:55:01;10.10;99.90
6666;DHT22;3369;49.906;8.598;2023-05-02T03:57:29;10.00;99.90
6666;DHT22;3369;49.906;8.598;2023-05-02T03:59:54;10.00;99.90
6666;DHT22;3369;49.906;8.598;2023-05-02T04:02:20;10.00;99.90
6666;DHT22;3369;49.906;8.598;2023-05-02T04:04:46;10.00;99.90
6666;DHT22;3369;49.906;8.598;2023-05-02T04:07:12;10.00;99.90
6666;DHT22;3369;49.906;8.598;2023-05-02T04:09:42;10.00;99.90
6666;DHT22;3369;49.906;8.598;2023-05-02T04:12:08;10.10;99.90
6666;DHT22;3369;49.906;8.598;2023-05-02T04:14:34;10.10;99.90
6666;DHT22;3369;49.906;8.598;2023-05-02T04:16:59;10.20;99.90
6666;DHT22;3369;49.906;8.598;2023-05-02T04:19:25;10.30;99.90
6666;DHT22;3369;49.906;8.598;2023-05-02T04:21:51;10.30;99.90
6666;DHT22;3369;49.906;8.598;2023-05-02T04:24:17;10.30;99.90
6666;DHT22;3369;49.906;8.598;2023-05-02T04:26:43;10.20;99.90
6666;DHT22;3369;49.906;8.598;2023-05-02T04:29:11;10.20;99.90
6666;DHT22;3369;49.906;8.598;2023-05-02T04:31:38;10.20;99.90
6666;DHT22;3369;49.906;8.598;2023-05-02T04:34:04;10.10;99.90
6666;DHT22;3369;49.906;8.598;2023-05-02T04:36:30;10.10;99.90
6666;DHT22;3369;49.906;8.598;2023-05-02T04:38:56;10.10;99.90
6666;DHT22;3369;49.906;8.598;2023-05-02T04:41:22;10.10;99.90
6666;DHT22;3369;49.906;8.598;2023-05-02T04:43:47;10.10;99.90
6666;DHT22;3369;49.906;8.598;2023-05-02T04:46:13;10.10;99.90
6666;DHT22;3369;49.906;8.598;2023-05-02T04:48:39;10.30;99.90
6666;DHT22;3369;49.906;8.598;2023-05-02T04:51:09;10.30;99.90
6666;DHT22;3369;49.906;8.598;2023-05-02T04:53:38;10.40;99.90
6666;DHT22;3369;49.906;8.598;2023-05-02T04:56:04;10.50;99.90
6666;DHT22;3369;49.906;8.598;2023-05-02T04:58:29;10.50;99.90
6666;DHT22;3369;49.906;8.598;2023-05-02T05:00:55;10.60;99.90
6666;DHT22;3369;49.906;8.598;2023-05-02T05:03:21;10.60;99.90
6666;DHT22;3369;49.906;8.598;2023-05-02T05:05:47;10.70;99.90
6666;DHT22;3369;49.906;8.598;2023-05-02T05:08:12;10.80;99.90
6666;DHT22;3369;49.906;8.598;2023-05-02T05:10:38;10.90;99.90
6666;DHT22;3369;49.906;8.598;2023-05-02T05:13:06;10.90;99.90
6666;DHT22;3369;49.906;8.598;2023-05-02T05:15:32;11.00;99.90
6666;DHT22;3369;49.906;8.598;2023-05-02T05:17:58;11.00;99.90
6666;DHT22;3369;49.906;8.598;2023-05-02T05:20:23;11.00;99.90
6666;DHT22;3369;49.906;8.598;2023-05-02T05:22:49;11.10;99.90
6666;DHT22;3369;49.906;8.598;2023-05-02T05:25:15;11.20;99.90
6666;DHT22;3369;49.906;8.598;2023-05-02T05:27:40;11.20;99.90
6666;DHT22;3369;49.906;8.598;2023-05-02T05:30:06;11.20;99.90
6666;DHT22;3369;49.906;8.598;2023-05-02T05:32:33;11.30;99.90
6666;DHT22;3369;49.906;8.598;2023-05-02T05:35:00;11.30;99.90
6666;DHT22;3369;49.906;8.598;2023-05-02T05:37:25;11.40;99.90
6666;DHT22;3369;49.906;8.598;2023-05-02T05:39:51;11.40;99.90
6666;DHT22;3369;49.906;8.598;2023-05-02T05:42:17;11.50;99.90
6666;DHT22;3369;49.906;8.598;2023-05-02T05:44:43;11.60;99.90
6666;DHT22;3369;49.906;8.598;2023-05-02T05:47:08;11.60;99.90
6666;DHT22;3369;49.906;8.598;2023-05-02T05:49:34;11.60;99.90
6666;DHT22;3369;49.906;8.598;2023-05-02T05:52:03;11.70;99.90
6666;DHT22;3369;49.906;8.598;2023-05-02T05:54:28;11.70;99.90
6666;DHT22;3369;49.906;8.598;2023-05-02T05:56:54;11.70;99.90
6666;DHT22;3369;49.906;8.598;2023-05-02T05:59:19;11.80;99.90
6666;DHT22;3369;49.906;8.598;2023-05-02T06:01:45;11.80;99.90
6666;DHT22;3369;49.906;8.598;2023-05-02T06:04:11;11.80;99.90
6666;DHT22;3369;49.906;8.598;2023-05-02T06:06:36;11.80;99.90
6666;DHT22;3369;49.906;8.598;2023-05-02T06:09:02;11.80;99.90
6666;DHT22;3369;49.906;8.598;2023-05-02T06:11:28;11.80;99.90
6666;DHT22;3369;49.906;8.598;2023-05-02T06:13:54;11.90;99.90
6666;DHT22;3369;49.906;8.598;2023-05-02T06:16:20;11.90;99.90
6666;DHT22;3369;49.906;8.598;2023-05-02T06:18:46;12.00;99.90
6666;DHT22;3369;49.906;8.598;2023-05-02T06:21:12;12.10;99.90
6666;DHT22;3369;49.906;8.598;2023-05-02T06:23:38;12.10;99.90
6666;DHT22;3369;49.906;8.598;2023-05-02T06:26:05;12.20;99.90
6666;DHT22;3369;49.906;8.598;2023-05-02T06:28:31;12.30;99.90
6666;DHT22;3369;49.906;8.598;2023-05-02T06:33:23;12.40;99.90
6666;DHT22;3369;49.906;8.598;2023-05-02T06:35:52;12.50;99.90
6666;DHT22;3369;49.906;8.598;2023-05-02T06:38:18;12.50;99.90
6666;DHT22;3369;49.906;8.598;2023-05-02T06:40:43;12.60;99.90
6666;DHT22;3369;49.906;8.598;2023-05-02T06:43:12;12.60;99.90
6666;DHT22;3369;49.906;8.598;2023-05-02T06:45:38;12.60;99.90
6666;DHT22;3369;49.906;8.598;2023-05-02T06:48:04;12.60;99.90
6666;DHT22;3369;49.906;8.598;2023-05-02T06:50:30;12.70;99.90
6666;DHT22;3369;49.906;8.598;2023-05-02T07:13:05;13.10;99.90
6666;DHT22;3369;49.906;8.598;2023-05-02T07:15:30;13.20;99.90
6666;DHT22;3369;49.906;8.598;2023-05-02T07:17:56;13.20;99.90
6666;DHT22;3369;49.906;8.598;2023-05-02T07:20:22;13.30;99.90
6666;DHT22;3369;49.906;8.598;2023-05-02T07:22:47;13.30;99.90
6666;DHT22;3369;49.906;8.598;2023-05-02T07:25:13;13.40;99.90
6666;DHT22;3369;49.906;8.598;2023-05-02T07:27:38;13.40;99.90
6666;DHT22;3369;49.906;8.598;2023-05-02T07:30:05;13.50;99.90
6666;DHT22;3369;49.906;8.598;2023-05-02T07:32:31;13.50;99.90
6666;DHT22;3369;49.906;8.598;2023-05-02T07:34:57;13.60;99.90
6666;DHT22;3369;49.906;8.598;2023-05-02T07:37:22;13.60;99.90
6666;DHT22;3369;49.906;8.598;2023-05-02T07:39:48;13.70;99.90
6666;DHT22;3369;49.906;8.598;2023-05-02T07:42:14;13.70;99.90
6666;DHT22;3369;49.906;8.598;2023-05-02T07:44:39;13.80;99.90
6666;DHT22;3369;49.906;8.598;2023-05-02T07:47:06;13.80;99.90
6666;DHT22;3369;49.906;8.598;2023-05-02T07:49:32;13.90;99.90
6666;DHT22;3369;49.906;8.598;2023-05-02T07:51:58;14.00;99.90
6666;DHT22;3369;49.906;8.598;2023-05-02T07:54:23;14.00;99.90
6666;DHT22;3369;49.906;8.598;2023-05-02T07:56:52;14.10;99.90
6666;DHT22;3369;49.906;8.598;2023-05-02T07:59:18;14.30;99.90
6666;DHT22;3369;49.906;8.598;2023-05-02T08:01:43;14.60;99.90
6666;DHT22;3369;49.906;8.598;2023-05-02T08:04:09;14.80;99.90
6666;DHT22;3369;49.906;8.598;2023-05-02T08:06:36;14.90;99.90
6666;DHT22;3369;49.906;8.598;2023-05-02T08:09:02;15.00;99.90
6666;DHT22;3369;49.906;8.598;2023-05-02T08:11:27;14.90;99.90
6666;DHT22;3369;49.906;8.598;2023-05-02T08:13:54;14.90;99.90
6666;DHT22;3369;49.906;8.598;2023-05-02T08:16:20;14.90;99.90
6666;DHT22;3369;49.906;8.598;2023-05-02T08:18:46;14.90;99.90
6666;DHT22;3369;49.906;8.598;2023-05-02T08:21:12;14.90;99.90
6666;DHT22;3369;49.906;8.598;2023-05-02T08:23:40;14.80;99.90
6666;DHT22;3369;49.906;8.598;2023-05-02T08:26:06;14.80;99.90
6666;DHT22;3369;49.906;8.598;2023-05-02T08:28:31;14.80;99.90
6666;DHT22;3369;49.906;8.598;2023-05-02T08:30:57;14.80;99.90
6666;DHT22;3369;49.906;8.598;2023-05-02T08:33:23;14.70;99.90
6666;DHT22;3369;49.906;8.598;2023-05-02T08:35:48;14.70;99.90
6666;DHT22;3369;49.906;8.598;2023-05-02T08:38:14;14.70;99.90
6666;DHT22;3369;49.906;8.598;2023-05-02T08:40:40;14.70;99.90
6666;DHT22;3369;49.906;8.598;2023-05-02T08:43:05;14.70;99.90
6666;DHT22;3369;49.906;8.598;2023-05-02T08:45:38;14.70;99.90
6666;DHT22;3369;49.906;8.598;2023-05-02T08:48:08;14.60;99.90
6666;DHT22;3369;49.906;8.598;2023-05-02T08:50:39;14.60;99.90
6666;DHT22;3369;49.906;8.598;2023-05-02T08:53:07;14.60;99.90
6666;DHT22;3369;49.906;8.598;2023-05-02T08:55:34;14.60;99.90
6666;DHT22;3369;49.906;8.598;2023-05-02T08:58:02;14.60;99.90
6666;DHT22;3369;49.906;8.598;2023-05-02T09:00:29;14.60;99.90
6666;DHT22;3369;49.906;8.598;2023-05-02T09:05:40;14.50;99.90
6666;DHT22;3369;49.906;8.598;2023-05-02T09:08:06;14.50;99.90
6666;DHT22;3369;49.906;8.598;2023-05-02T09:10:34;14.60;99.90
6666;DHT22;3369;49.906;8.598;2023-05-02T09:16:20;14.80;99.90
6666;DHT22;3369;49.906;8.598;2023-05-02T09:18:54;14.90;99.90
6666;DHT22;3369;49.906;8.598;2023-05-02T09:23:49;15.10;99.90
6666;DHT22;3369;49.906;8.598;2023-05-02T09:28:50;15.40;99.90
6666;DHT22;3369;49.906;8.598;2023-05-02T09:31:18;15.50;99.90
6666;DHT22;3369;49.906;8.598;2023-05-02T09:33:44;15.50;99.90
6666;DHT22;3369;49.906;8.598;2023-05-02T09:36:14;15.60;99.90
6666;DHT22;3369;49.906;8.598;2023-05-02T09:38:41;15.60;99.90
6666;DHT22;3369;49.906;8.598;2023-05-02T09:41:07;15.60;99.90
6666;DHT22;3369;49.906;8.598;2023-05-02T09:43:33;15.70;99.90
6666;DHT22;3369;49.906;8.598;2023-05-02T09:46:01;15.70;99.90
6666;DHT22;3369;49.906;8.598;2023-05-02T09:48:28;15.80;99.90
6666;DHT22;3369;49.906;8.598;2023-05-02T09:50:55;15.80;99.90
6666;DHT22;3369;49.906;8.598;2023-05-02T09:53:23;15.90;99.90
6666;DHT22;3369;49.906;8.598;2023-05-02T09:56:01;15.90;99.90
6666;DHT22;3369;49.906;8.598;2023-05-02T09:58:27;15.90;99.90
6666;DHT22;3369;49.906;8.598;2023-05-02T10:00:56;16.00;99.90
6666;DHT22;3369;49.906;8.598;2023-05-02T10:03:23;16.00;99.90
6666;DHT22;3369;49.906;8.598;2023-05-02T10:05:50;16.10;99.90
6666;DHT22;3369;49.906;8.598;2023-05-02T10:08:19;16.20;99.90
6666;DHT22;3369;49.906;8.598;2023-05-02T10:10:50;16.40;99.90
6666;DHT22;3369;49.906;8.598;2023-05-02T10:13:19;16.60;99.90
6666;DHT22;3369;49.906;8.598;2023-05-02T10:15:49;16.70;99.90
6666;DHT22;3369;49.906;8.598;2023-05-02T10:18:40;17.00;99.90
6666;DHT22;3369;49.906;8.598;2023-05-02T10:21:10;17.10;99.90
6666;DHT22;3369;49.906;8.598;2023-05-02T10:23:41;17.10;99.90
6666;DHT22;3369;49.906;8.598;2023-05-02T10:26:09;17.10;99.90
6666;DHT22;3369;49.906;8.598;2023-05-02T10:28:35;17.20;99.90
6666;DHT22;3369;49.906;8.598;2023-05-02T10:31:01;17.10;99.90
6666;DHT22;3369;49.906;8.598;2023-05-02T10:33:30;17.00;99.90
6666;DHT22;3369;49.906;8.598;2023-05-02T10:35:58;16.90;99.90
6666;DHT22;3369;49.906;8.598;2023-05-02T10:38:24;16.80;99.90
6666;DHT22;3369;49.906;8.598;2023-05-02T10:40:58;16.80;99.70
6666;DHT22;3369;49.906;8.598;2023-05-02T10:43:34;16.80;99.50
6666;DHT22;3369;49.906;8.598;2023-05-02T10:46:01;16.80;99.10
6666;DHT22;3369;49.906;8.598;2023-05-02T10:48:30;16.70;99.20
6666;DHT22;3369;49.906;8.598;2023-05-02T10:50:57;16.70;99.00
6666;DHT22;3369;49.906;8.598;2023-05-02T10:53:28;16.60;99.10
6666;DHT22;3369;49.906;8.598;2023-05-02T10:58:44;16.60;99.40
6666;DHT22;3369;49.906;8.598;2023-05-02T11:04:07;16.50;99.00
6666;DHT22;3369;49.906;8.598;2023-05-02T11:06:35;16.40;98.80
6666;DHT22;3369;49.906;8.598;2023-05-02T11:11:46;16.60;98.70
6666;DHT22;3369;49.906;8.598;2023-05-02T11:19:30;17.20;97.20
6666;DHT22;3369;49.906;8.598;2023-05-02T11:24:52;17.30;96.70
6666;DHT22;3369;49.906;8.598;2023-05-02T11:29:59;17.10;96.60
6666;DHT22;3369;49.906;8.598;2023-05-02T11:35:17;17.30;97.30
6666;DHT22;3369;49.906;8.598;2023-05-02T11:37:55;17.40;96.50
6666;DHT22;3369;49.906;8.598;2023-05-02T11:40:21;17.60;96.70
6666;DHT22;3369;49.906;8.598;2023-05-02T11:42:48;17.70;96.30
6666;DHT22;3369;49.906;8.598;2023-05-02T11:45:13;17.90;95.70
6666;DHT22;3369;49.906;8.598;2023-05-02T11:47:40;18.00;95.00
6666;DHT22;3369;49.906;8.598;2023-05-02T11:50:07;18.00;95.00
6666;DHT22;3369;49.906;8.598;2023-05-02T11:52:43;18.10;94.70
6666;DHT22;3369;49.906;8.598;2023-05-02T11:55:13;18.30;95.00
6666;DHT22;3369;49.906;8.598;2023-05-02T11:57:40;18.50;94.60
6666;DHT22;3369;49.906;8.598;2023-05-02T12:00:06;18.50;92.20
6666;DHT22;3369;49.906;8.598;2023-05-02T12:02:35;18.50;93.10
6666;DHT22;3369;49.906;8.598;2023-05-02T12:05:03;18.50;92.80
6666;DHT22;3369;49.906;8.598;2023-05-02T12:07:45;18.50;92.70
6666;DHT22;3369;49.906;8.598;2023-05-02T12:10:13;18.60;93.10
6666;DHT22;3369;49.906;8.598;2023-05-02T12:12:42;18.70;92.60
6666;DHT22;3369;49.906;8.598;2023-05-02T12:15:11;18.80;91.90
6666;DHT22;3369;49.906;8.598;2023-05-02T12:17:42;18.90;92.20
6666;DHT22;3369;49.906;8.598;2023-05-02T12:20:09;19.20;92.20
6666;DHT22;3369;49.906;8.598;2023-05-02T12:22:35;19.30;91.60
6666;DHT22;3369;49.906;8.598;2023-05-02T12:25:03;19.30;90.40
6666;DHT22;3369;49.906;8.598;2023-05-02T12:27:30;19.40;91.10
6666;DHT22;3369;49.906;8.598;2023-05-02T12:29:58;19.60;89.80
6666;DHT22;3369;49.906;8.598;2023-05-02T12:32:31;19.70;89.20
6666;DHT22;3369;49.906;8.598;2023-05-02T12:35:00;19.80;89.50
6666;DHT22;3369;49.906;8.598;2023-05-02T12:37:27;19.60;88.70
6666;DHT22;3369;49.906;8.598;2023-05-02T12:39:54;19.40;88.80
6666;DHT22;3369;49.906;8.598;2023-05-02T12:42:24;19.30;89.80
6666;DHT22;3369;49.906;8.598;2023-05-02T12:44:51;19.20;90.10
6666;DHT22;3369;49.906;8.598;2023-05-02T12:47:18;19.10;90.40
6666;DHT22;3369;49.906;8.598;2023-05-02T12:49:54;19.00;90.60
6666;DHT22;3369;49.906;8.598;2023-05-02T12:52:49;18.90;90.80
6666;DHT22;3369;49.906;8.598;2023-05-02T12:55:22;18.90;90.90
6666;DHT22;3369;49.906;8.598;2023-05-02T12:58:03;18.80;91.10
6666;DHT22;3369;49.906;8.598;2023-05-02T13:00:30;18.60;91.60
6666;DHT22;3369;49.906;8.598;2023-05-02T13:02:56;18.50;92.20
6666;DHT22;3369;49.906;8.598;2023-05-02T13:05:22;18.50;92.80
6666;DHT22;3369;49.906;8.598;2023-05-02T13:07:48;18.50;92.80
6666;DHT22;3369;49.906;8.598;2023-05-02T13:29:40;17.60;91.50
6666;DHT22;3369;49.906;8.598;2023-05-02T13:32:06;17.70;92.30
6666;DHT22;3369;49.906;8.598;2023-05-02T13:34:32;17.70;92.50
6666;DHT22;3369;49.906;8.598;2023-05-02T13:36:57;17.60;92.40
6666;DHT22;3369;49.906;8.598;2023-05-02T13:39:23;17.60;92.10
6666;DHT22;3369;49.906;8.598;2023-05-02T13:41:49;17.60;92.50
6666;DHT22;3369;49.906;8.598;2023-05-02T13:44:14;17.60;92.30
6666;DHT22;3369;49.906;8.598;2023-05-02T13:46:40;17.60;92.40
6666;DHT22;3369;49.906;8.598;2023-05-02T13:49:05;17.50;92.40
6666;DHT22;3369;49.906;8.598;2023-05-02T13:51:31;17.40;92.50
6666;DHT22;3369;49.906;8.598;2023-05-02T13:53:57;17.50;92.60
6666;DHT22;3369;49.906;8.598;2023-05-02T13:56:23;17.70;93.10
6666;DHT22;3369;49.906;8.598;2023-05-02T13:58:49;17.80;92.80
6666;DHT22;3369;49.906;8.598;2023-05-02T14:01:14;17.90;92.70
6666;DHT22;3369;49.906;8.598;2023-05-02T14:03:40;17.90;92.60
6666;DHT22;3369;49.906;8.598;2023-05-02T14:06:06;17.80;92.90
6666;DHT22;3369;49.906;8.598;2023-05-02T14:08:32;17.80;93.20
6666;DHT22;3369;49.906;8.598;2023-05-02T14:10:57;17.60;93.30
6666;DHT22;3369;49.906;8.598;2023-05-02T14:13:23;17.50;93.40
6666;DHT22;3369;49.906;8.598;2023-05-02T14:15:49;17.40;93.70
6666;DHT22;3369;49.906;8.598;2023-05-02T14:18:15;17.30;94.00
6666;DHT22;3369;49.906;8.598;2023-05-02T14:20:41;17.30;94.50
6666;DHT22;3369;49.906;8.598;2023-05-02T14:23:07;17.20;95.00
6666;DHT22;3369;49.906;8.598;2023-05-02T14:25:34;17.10;95.20
6666;DHT22;3369;49.906;8.598;2023-05-02T14:28:00;17.00;95.20
6666;DHT22;3369;49.906;8.598;2023-05-02T14:30:27;16.90;95.20
6666;DHT22;3369;49.906;8.598;2023-05-02T14:32:53;16.90;95.20
6666;DHT22;3369;49.906;8.598;2023-05-02T14:35:18;17.00;95.30
6666;DHT22;3369;49.906;8.598;2023-05-02T14:37:44;17.10;95.30
6666;DHT22;3369;49.906;8.598;2023-05-02T14:40:12;17.20;95.30
6666;DHT22;3369;49.906;8.598;2023-05-02T14:42:41;17.40;95.40
6666;DHT22;3369;49.906;8.598;2023-05-02T14:45:08;17.50;95.20
6666;DHT22;3369;49.906;8.598;2023-05-02T14:47:35;17.60;95.10
6666;DHT22;3369;49.906;8.598;2023-05-02T14:50:02;17.80;95.30
6666;DHT22;3369;49.906;8.598;2023-05-02T14:52:28;17.90;95.10
6666;DHT22;3369;49.906;8.598;2023-05-02T14:54:54;18.00;95.00
6666;DHT22;3369;49.906;8.598;2023-05-02T14:57:19;18.00;94.80
6666;DHT22;3369;49.906;8.598;2023-05-02T14:59:46;17.90;94.50
6666;DHT22;3369;49.906;8.598;2023-05-02T15:02:11;17.90;94.60
6666;DHT22;3369;49.906;8.598;2023-05-02T15:04:37;17.80;94.50
6666;DHT22;3369;49.906;8.598;2023-05-02T15:07:03;17.80;94.50
6666;DHT22;3369;49.906;8.598;2023-05-02T15:09:29;17.70;94.40
6666;DHT22;3369;49.906;8.598;2023-05-02T15:11:55;17.60;94.20
6666;DHT22;3369;49.906;8.598;2023-05-02T15:14:21;17.60;93.90
6666;DHT22;3369;49.906;8.598;2023-05-02T15:16:47;17.50;93.90
6666;DHT22;3369;49.906;8.598;2023-05-02T15:19:13;17.50;94.00
6666;DHT22;3369;49.906;8.598;2023-05-02T15:21:38;17.40;93.90
6666;DHT22;3369;49.906;8.598;2023-05-02T15:24:04;17.40;93.90
6666;DHT22;3369;49.906;8.598;2023-05-02T15:26:31;17.40;93.90
6666;DHT22;3369;49.906;8.598;2023-05-02T15:28:56;17.40;93.80
6666;DHT22;3369;49.906;8.598;2023-05-02T15:31:22;17.30;93.70
6666;DHT22;3369;49.906;8.598;2023-05-02T15:33:49;17.30;93.60
6666;DHT22;3369;49.906;8.598;2023-05-02T15:36:14;17.30;93.00
6666;DHT22;3369;49.906;8.598;2023-05-02T15:38:40;17.30;93.00
6666;DHT22;3369;49.906;8.598;2023-05-02T15:41:09;17.40;93.10
6666;DHT22;3369;49.906;8.598;2023-05-02T15:43:35;17.50;93.10
6666;DHT22;3369;49.906;8.598;2023-05-02T15:46:01;17.60;93.00
6666;DHT22;3369;49.906;8.598;2023-05-02T15:48:29;17.70;92.90
6666;DHT22;3369;49.906;8.598;2023-05-02T15:50:54;17.90;92.90
6666;DHT22;3369;49.906;8.598;2023-05-02T15:53:21;18.00;92.90
6666;DHT22;3369;49.906;8.598;2023-05-02T15:55:48;18.20;92.90
6666;DHT22;3369;49.906;8.598;2023-05-02T15:58:15;18.30;92.60
6666;DHT22;3369;49.906;8.598;2023-05-02T16:00:44;18.40;92.40
6666;DHT22;3369;49.906;8.598;2023-05-02T16:03:10;18.40;92.20
6666;DHT22;3369;49.906;8.598;2023-05-02T16:05:39;18.40;91.80
6666;DHT22;3369;49.906;8.598;2023-05-02T16:08:05;18.40;91.80
6666;DHT22;3369;49.906;8.598;2023-05-02T16:10:31;18.40;91.70
6666;DHT22;3369;49.906;8.598;2023-05-02T16:12:57;18.40;91.80
6666;DHT22;3369;49.906;8.598;2023-05-02T16:15:23;18.40;91.60
6666;DHT22;3369;49.906;8.598;2023-05-02T16:17:49;18.40;91.30
6666;DHT22;3369;49.906;8.598;2023-05-02T16:20:16;18.30;91.10
6666;DHT22;3369;49.906;8.598;2023-05-02T16:22:46;18.20;91.00
6666;DHT22;3369;49.906;8.598;2023-05-02T16:25:13;18.20;91.00
6666;DHT22;3369;49.906;8.598;2023-05-02T16:27:39;18.10;90.60
6666;DHT22;3369;49.906;8.598;2023-05-02T16:30:05;18.00;90.60
6666;DHT22;3369;49.906;8.598;2023-05-02T16:32:31;17.90;90.60
6666;DHT22;3369;49.906;8.598;2023-05-02T16:34:57;17.80;90.70
6666;DHT22;3369;49.906;8.598;2023-05-02T16:37:23;17.80;90.70
6666;DHT22;3369;49.906;8.598;2023-05-02T16:39:48;17.70;90.60
6666;DHT22;3369;49.906;8.598;2023-05-02T16:42:14;17.60;90.40
6666;DHT22;3369;49.906;8.598;2023-05-02T16:44:40;17.50;90.80
6666;DHT22;3369;49.906;8.598;2023-05-02T16:47:08;17.50;90.60
6666;DHT22;3369;49.906;8.598;2023-05-02T16:49:34;17.40;90.60
6666;DHT22;3369;49.906;8.598;2023-05-02T16:52:00;17.30;90.70
6666;DHT22;3369;49.906;8.598;2023-05-02T16:54:25;17.20;90.70
6666;DHT22;3369;49.906;8.598;2023-05-02T16:56:51;17.10;90.70
6666;DHT22;3369;49.906;8.598;2023-05-02T16:59:17;17.00;90.80
6666;DHT22;3369;49.906;8.598;2023-05-02T17:01:43;17.00;90.90
6666;DHT22;3369;49.906;8.598;2023-05-02T17:04:08;16.90;90.90
6666;DHT22;3369;49.906;8.598;2023-05-02T17:06:34;16.80;90.80
6666;DHT22;3369;49.906;8.598;2023-05-02T17:09:00;16.70;90.80
6666;DHT22;3369;49.906;8.598;2023-05-02T17:11:26;16.60;90.80
6666;DHT22;3369;49.906;8.598;2023-05-02T17:13:53;16.60;90.80
6666;DHT22;3369;49.906;8.598;2023-05-02T17:16:19;16.50;90.60
6666;DHT22;3369;49.906;8.598;2023-05-02T17:18:46;16.40;90.40
6666;DHT22;3369;49.906;8.598;2023-05-02T17:21:13;16.40;90.20
6666;DHT22;3369;49.906;8.598;2023-05-02T17:23:39;16.30;90.30
6666;DHT22;3369;49.906;8.598;2023-05-02T17:26:05;16.20;90.20
6666;DHT22;3369;49.906;8.598;2023-05-02T17:28:39;16.10;90.20
6666;DHT22;3369;49.906;8.598;2023-05-02T17:31:04;16.00;90.10
6666;DHT22;3369;49.906;8.598;2023-05-02T17:33:30;16.00;90.00
6666;DHT22;3369;49.906;8.598;2023-05-02T17:35:56;15.90;90.00
6666;DHT22;3369;49.906;8.598;2023-05-02T17:38:22;15.80;90.00
6666;DHT22;3369;49.906;8.598;2023-05-02T17:40:48;15.70;90.10
6666;DHT22;3369;49.906;8.598;2023-05-02T17:43:14;15.70;90.20
6666;DHT22;3369;49.906;8.598;2023-05-02T17:45:41;15.60;90.10
6666;DHT22;3369;49.906;8.598;2023-05-02T17:48:06;15.50;90.00
6666;DHT22;3369;49.906;8.598;2023-05-02T17:50:36;15.50;90.00
6666;DHT22;3369;49.906;8.598;2023-05-02T17:53:03;15.40;90.00
6666;DHT22;3369;49.906;8.598;2023-05-02T17:55:30;15.30;90.00